Time;durP1;ratioP1;P1;durP2;ratioP2;P2;SDS_P1;SDS_P2;PMS_P1;PMS_P2;Temp;Humidity;BMP_temperature;BMP_pressure;BME280_temperature;BME280_humidity;BME280_pressure;Samples;Min_cycle;Max_cycle;Signal;HPM_P1;HPM_P2
2022/12/29 00:01:56;;;;;;;15.23;13.63;;;21.70;55.80;;;;;;5043681;28;20040;-71
2022/12/29 00:04:22;;;;;;;15.02;13.43;;;21.70;55.90;;;;;;5053990;28;20024;-72
2022/12/29 00:06:48;;;;;;;14.68;13.20;;;21.70;55.90;;;;;;5052726;28;20051;-72
2022/12/29 00:09:15;;;;;;;14.95;13.35;;;21.70;55.90;;;;;;5039891;28;20021;-71
2022/12/29 00:11:41;;;;;;;14.73;13.20;;;21.60;55.90;;;;;;5051354;28;20476;-72
2022/12/29 00:16:53;;;;;;;13.25;11.95;;;21.60;56.00;;;;;;5051633;28;20040;-72
2022/12/29 00:36:15;;;;;;;12.35;11.05;;;21.50;56.10;;;;;;5047657;28;20106;-72
2022/12/29 00:44:13;;;;;;;11.38;10.18;;;21.50;56.20;;;;;;5049192;28;20464;-72
2022/12/29 00:46:41;;;;;;;11.75;10.55;;;21.40;56.20;;;;;;5055086;28;20052;-72
2022/12/29 00:51:55;;;;;;;11.15;10.05;;;21.40;56.30;;;;;;5047093;28;20044;-72
2022/12/29 00:54:21;;;;;;;11.57;10.38;;;21.40;56.30;;;;;;5047415;28;20123;-70
2022/12/29 00:56:48;;;;;;;11.90;10.23;;;21.40;56.30;;;;;;5051536;28;20038;-71
2022/12/29 00:59:14;;;;;;;11.05;9.38;;;21.40;56.30;;;;;;5056218;28;20029;-71
2022/12/29 01:01:40;;;;;;;11.52;9.18;;;21.40;56.40;;;;;;5047353;28;20417;-71
2022/12/29 01:04:06;;;;;;;9.75;8.75;;;21.40;56.40;;;;;;5061870;28;20495;-71
2022/12/29 01:06:33;;;;;;;11.10;9.05;;;21.30;56.40;;;;;;5053480;28;20056;-71
2022/12/29 01:11:43;;;;;;;9.75;8.75;;;21.30;56.50;;;;;;5067254;28;20028;-73
2022/12/29 01:14:09;;;;;;;9.93;8.82;;;21.30;56.50;;;;;;5065704;28;20029;-70
2022/12/29 01:16:36;;;;;;;9.32;8.38;;;21.30;56.50;;;;;;5057648;28;20377;-72
2022/12/29 01:19:02;;;;;;;8.75;7.85;;;21.30;56.50;;;;;;5032831;28;20422;-71
2022/12/29 01:21:28;;;;;;;10.07;8.45;;;21.30;56.60;;;;;;5054358;28;20025;-71
2022/12/29 01:23:53;;;;;;;9.38;8.38;;;21.20;56.50;;;;;;5045581;28;20030;-71
2022/12/29 01:26:19;;;;;;;8.02;7.15;;;21.20;56.50;;;;;;5052438;28;20116;-70
2022/12/29 01:28:45;;;;;;;10.13;8.18;;;21.20;56.60;;;;;;5055228;28;20028;-72
2022/12/29 01:31:13;;;;;;;8.43;7.53;;;21.20;56.60;;;;;;5049934;28;20132;-71
2022/12/29 01:33:39;;;;;;;8.27;7.43;;;21.20;56.60;;;;;;5034097;28;20021;-72
2022/12/29 01:36:06;;;;;;;8.38;7.47;;;21.20;56.60;;;;;;5052912;28;20035;-71
2022/12/29 01:38:34;;;;;;;8.23;7.43;;;21.20;56.60;;;;;;5038935;28;20030;-72
2022/12/29 01:40:59;;;;;;;8.40;7.53;;;21.20;56.70;;;;;;5054013;28;20017;-71
2022/12/29 01:43:48;;;;;;;8.45;7.32;;;21.20;56.70;;;;;;5045706;28;20079;-71
2022/12/29 01:46:23;;;;;;;8.10;7.30;;;21.10;56.70;;;;;;5050526;28;20024;-71
2022/12/29 01:48:53;;;;;;;9.15;7.50;;;21.10;56.70;;;;;;5046747;28;20147;-72
2022/12/29 01:51:21;;;;;;;7.53;6.70;;;21.10;56.70;;;;;;5045955;28;20048;-72
2022/12/29 01:53:47;;;;;;;7.57;6.70;;;21.10;56.70;;;;;;5056447;28;20016;-72
2022/12/29 01:56:17;;;;;;;7.30;6.57;;;21.10;56.70;;;;;;5062507;28;20032;-72
2022/12/29 01:58:47;;;;;;;7.57;6.70;;;21.10;56.70;;;;;;5062165;28;20465;-71
2022/12/29 02:01:15;;;;;;;7.35;6.63;;;21.10;56.70;;;;;;5037323;28;20125;-71
2022/12/29 02:03:41;;;;;;;7.70;6.65;;;21.10;56.70;;;;;;5056151;28;20029;-72
2022/12/29 02:06:22;;;;;;;7.35;6.50;;;21.00;56.70;;;;;;5050381;28;20037;-72
2022/12/29 02:08:52;;;;;;;7.53;6.40;;;21.00;56.70;;;;;;5055357;28;20037;-72
2022/12/29 02:11:18;;;;;;;7.43;6.50;;;21.00;56.80;;;;;;5053431;28;20076;-71
2022/12/29 02:13:43;;;;;;;7.40;6.63;;;21.00;56.80;;;;;;5050842;28;20112;-73
2022/12/29 02:16:14;;;;;;;6.88;6.10;;;21.00;56.80;;;;;;5052573;28;20105;-72
2022/12/29 02:19:11;;;;;;;7.63;6.57;;;21.00;56.80;;;;;;5050781;28;20490;-71
2022/12/29 02:22:05;;;;;;;7.72;6.50;;;21.00;56.80;;;;;;5051675;28;20051;-71
2022/12/29 02:25:02;;;;;;;7.38;6.18;;;21.00;56.90;;;;;;5051504;28;20026;-72
2022/12/29 02:27:36;;;;;;;7.05;6.20;;;21.00;56.80;;;;;;5037546;28;20079;-72
2022/12/29 02:30:15;;;;;;;6.80;6.10;;;21.00;56.80;;;;;;5047369;28;20414;-71
2022/12/29 02:32:52;;;;;;;6.40;5.75;;;21.00;56.90;;;;;;5047179;28;20028;-71
2022/12/29 02:35:33;;;;;;;6.57;5.82;;;21.00;56.90;;;;;;5052652;28;20474;-71
2022/12/29 02:38:03;;;;;;;6.78;5.97;;;20.90;56.80;;;;;;5057406;28;20029;-71
2022/12/29 02:40:31;;;;;;;;;;;20.90;56.80;;;;;;5061434;28;20056;-72
2022/12/29 02:43:15;;;;;;;6.85;5.88;;;20.90;56.80;;;;;;5050596;28;19982;-71
2022/12/29 02:46:07;;;;;;;6.05;5.45;;;20.90;56.90;;;;;;5048932;28;20032;-72
2022/12/29 02:48:42;;;;;;;6.57;5.57;;;20.90;56.90;;;;;;5013971;28;20076;-72
2022/12/29 02:51:15;;;;;;;6.25;5.60;;;20.90;56.90;;;;;;5063363;28;20021;-72
2022/12/29 02:56:25;;;;;;;6.75;5.70;;;20.90;56.90;;;;;;5052579;28;20120;-73
2022/12/29 02:58:51;;;;;;;6.32;5.70;;;20.90;56.90;;;;;;5053181;28;20116;-72
2022/12/29 03:01:35;;;;;;;6.60;5.90;;;20.90;57.00;;;;;;5036567;28;20147;-73
2022/12/29 03:04:12;;;;;;;6.75;5.47;;;20.90;57.00;;;;;;5037429;28;20026;-72
2022/12/29 03:06:51;;;;;;;6.07;5.30;;;20.80;56.90;;;;;;5052769;28;20137;-73
2022/12/29 03:09:20;;;;;;;;;;;20.80;56.90;;;;;;5038444;28;20481;-73
2022/12/29 03:12:09;;;;;;;6.40;5.47;;;20.80;57.00;;;;;;5054348;28;20367;-73
2022/12/29 03:17:35;;;;;;;5.57;4.97;;;20.80;57.00;;;;;;5057314;28;19911;-73
2022/12/29 03:20:08;;;;;;;5.60;5.00;;;20.80;56.90;;;;;;5041381;28;20021;-72
2022/12/29 03:22:39;;;;;;;6.53;5.50;;;20.80;56.90;;;;;;5059172;28;20070;-72
2022/12/29 03:25:05;;;;;;;5.57;4.90;;;20.80;57.00;;;;;;5052340;28;20571;-73
2022/12/29 03:27:38;;;;;;;5.93;5.13;;;20.80;57.00;;;;;;5055752;28;20032;-73
2022/12/29 03:30:05;;;;;;;5.40;4.80;;;20.80;57.00;;;;;;5044945;28;20027;-73
2022/12/29 03:32:40;;;;;;;5.22;4.70;;;20.70;57.00;;;;;;5055525;28;20029;-73
2022/12/29 03:35:09;;;;;;;5.40;4.90;;;20.70;57.00;;;;;;5055061;28;20043;-72
2022/12/29 03:37:42;;;;;;;5.50;4.70;;;20.70;57.00;;;;;;5057466;28;20480;-72
2022/12/29 03:40:09;;;;;;;5.15;4.45;;;20.70;57.00;;;;;;5057134;28;20021;-73
2022/12/29 03:42:37;;;;;;;5.18;4.68;;;20.70;57.10;;;;;;5056928;28;20017;-72
2022/12/29 03:45:06;;;;;;;5.35;4.60;;;20.70;57.10;;;;;;5050491;28;20516;-73
2022/12/29 03:47:32;;;;;;;4.88;4.38;;;20.70;57.10;;;;;;5056325;28;20380;-71
2022/12/29 03:49:57;;;;;;;6.25;5.15;;;20.70;57.10;;;;;;5049762;28;20023;-71
2022/12/29 03:52:23;;;;;;;5.95;4.95;;;20.70;57.10;;;;;;5055414;28;20024;-71
2022/12/29 03:54:48;;;;;;;4.93;4.43;;;20.70;57.10;;;;;;5057946;28;20531;-71
2022/12/29 03:57:14;;;;;;;5.80;4.97;;;20.70;57.10;;;;;;5059336;28;20029;-72
2022/12/29 03:59:39;;;;;;;4.97;4.47;;;20.70;57.10;;;;;;5053197;28;20071;-71
2022/12/29 04:02:05;;;;;;;4.97;4.18;;;20.70;57.10;;;;;;5042474;28;20033;-71
2022/12/29 04:04:31;;;;;;;5.35;4.85;;;20.70;57.10;;;;;;5042774;28;20476;-71
2022/12/29 04:06:56;;;;;;;5.38;4.57;;;20.70;57.10;;;;;;5037879;28;20029;-71
2022/12/29 04:09:22;;;;;;;4.85;4.30;;;20.70;57.10;;;;;;5056015;28;20473;-72
2022/12/29 04:11:47;;;;;;;4.70;4.20;;;20.60;57.00;;;;;;5046744;28;20031;-71
2022/12/29 04:14:13;;;;;;;5.90;4.63;;;20.60;57.10;;;;;;5033645;28;20020;-71
2022/12/29 04:16:38;;;;;;;4.60;4.10;;;20.60;57.10;;;;;;5051851;28;20041;-71
2022/12/29 04:19:05;;;;;;;4.30;3.90;;;20.60;57.10;;;;;;5047520;28;20028;-72
2022/12/29 04:21:31;;;;;;;4.60;4.10;;;20.60;57.10;;;;;;5051448;28;20041;-72
2022/12/29 04:23:57;;;;;;;5.03;4.18;;;20.60;57.10;;;;;;5056664;28;20037;-72
2022/12/29 04:26:22;;;;;;;4.70;4.10;;;20.60;57.10;;;;;;5045919;28;20722;-72
2022/12/29 04:28:48;;;;;;;5.18;4.10;;;20.60;57.10;;;;;;5039103;28;20112;-72
2022/12/29 04:31:14;;;;;;;4.55;4.00;;;20.60;57.10;;;;;;5040552;28;20492;-71
2022/12/29 04:33:39;;;;;;;4.93;4.10;;;20.60;57.10;;;;;;5039105;28;20481;-72
2022/12/29 04:36:05;;;;;;;4.60;4.10;;;20.60;57.10;;;;;;5052163;28;20030;-72
2022/12/29 04:38:30;;;;;;;4.80;3.78;;;20.60;57.10;;;;;;5055078;28;20385;-72
2022/12/29 04:40:59;;;;;;;4.45;3.80;;;20.60;57.10;;;;;;5054411;28;20029;-72
2022/12/29 04:43:25;;;;;;;4.07;3.65;;;20.60;57.10;;;;;;5035399;28;20057;-71
2022/12/29 04:45:50;;;;;;;4.35;3.90;;;20.60;57.10;;;;;;5052958;28;20052;-72
2022/12/29 04:48:16;;;;;;;4.57;3.95;;;20.60;57.10;;;;;;5052959;28;20341;-72
2022/12/29 04:50:43;;;;;;;5.18;4.15;;;20.60;57.10;;;;;;5056160;28;20017;-72
2022/12/29 04:53:09;;;;;;;4.15;3.55;;;20.60;57.10;;;;;;5056566;28;20024;-72
2022/12/29 04:55:34;;;;;;;4.32;3.60;;;20.50;57.10;;;;;;5048413;28;20074;-73
2022/12/29 04:58:00;;;;;;;4.25;3.75;;;20.50;57.10;;;;;;5044806;28;20067;-72
2022/12/29 05:00:25;;;;;;;4.40;3.80;;;20.50;57.10;;;;;;5048095;28;20112;-72
2022/12/29 05:02:51;;;;;;;4.65;3.85;;;20.50;57.10;;;;;;5054324;28;20029;-72
2022/12/29 05:05:17;;;;;;;4.38;3.50;;;20.50;57.10;;;;;;5055493;28;20512;-73
2022/12/29 05:07:43;;;;;;;4.50;3.80;;;20.50;57.10;;;;;;5053948;28;20025;-72
2022/12/29 05:10:09;;;;;;;4.15;3.40;;;20.50;57.10;;;;;;5053431;28;20060;-73
2022/12/29 05:12:36;;;;;;;3.83;3.25;;;20.50;57.10;;;;;;5047719;28;20056;-73
2022/12/29 05:15:03;;;;;;;3.92;3.22;;;20.50;57.10;;;;;;5050475;28;20026;-73
2022/12/29 05:17:29;;;;;;;3.75;3.10;;;20.50;57.20;;;;;;5046552;28;20040;-72
2022/12/29 05:19:55;;;;;;;4.28;3.58;;;20.50;57.20;;;;;;5045979;28;20154;-72
2022/12/29 05:22:21;;;;;;;3.90;3.20;;;20.50;57.20;;;;;;5041431;28;20045;-73
2022/12/29 05:24:47;;;;;;;4.20;3.42;;;20.50;57.20;;;;;;5024079;28;20025;-72
2022/12/29 05:27:13;;;;;;;4.20;3.47;;;20.50;57.20;;;;;;5042580;28;20037;-71
2022/12/29 05:29:38;;;;;;;3.88;3.38;;;20.50;57.20;;;;;;5047199;28;20494;-71
2022/12/29 05:32:04;;;;;;;4.03;3.45;;;20.50;57.20;;;;;;5041668;28;20516;-71
2022/12/29 05:34:29;;;;;;;3.90;3.35;;;20.40;57.20;;;;;;5034303;28;20029;-71
2022/12/29 05:36:55;;;;;;;4.10;3.50;;;20.50;57.20;;;;;;5044082;28;20091;-71
2022/12/29 05:39:21;;;;;;;3.88;3.35;;;20.40;57.20;;;;;;5048619;28;20116;-71
2022/12/29 05:41:46;;;;;;;3.85;2.90;;;20.40;57.20;;;;;;5052471;28;20498;-73
2022/12/29 05:44:12;;;;;;;3.90;3.10;;;20.50;57.30;;;;;;5036673;28;20055;-71
2022/12/29 05:46:37;;;;;;;3.80;3.08;;;20.40;57.20;;;;;;5049700;28;20035;-71
2022/12/29 05:49:04;;;;;;;3.80;3.40;;;20.40;57.20;;;;;;5051457;28;20029;-72
2022/12/29 05:51:30;;;;;;;3.70;2.95;;;20.40;57.20;;;;;;5049346;28;20029;-71
2022/12/29 05:53:55;;;;;;;3.70;3.20;;;20.40;57.20;;;;;;5052995;28;20469;-72
2022/12/29 05:56:21;;;;;;;3.55;2.90;;;20.40;57.70;;;;;;5056518;28;20029;-73
2022/12/29 05:58:47;;;;;;;4.00;3.08;;;20.40;57.20;;;;;;5057615;28;20028;-71
2022/12/29 06:01:12;;;;;;;3.50;3.03;;;20.40;57.70;;;;;;5064046;28;20090;-71
2022/12/29 06:03:38;;;;;;;3.40;2.83;;;20.40;57.30;;;;;;5049916;28;20030;-71
2022/12/29 06:06:04;;;;;;;3.35;2.83;;;20.40;57.30;;;;;;5033144;28;20064;-72
2022/12/29 06:08:29;;;;;;;4.45;3.03;;;20.40;57.30;;;;;;5045504;28;20132;-71
2022/12/29 06:10:55;;;;;;;4.32;2.90;;;20.40;57.30;;;;;;5063527;28;20047;-72
2022/12/29 06:13:21;;;;;;;3.42;2.70;;;20.40;57.30;;;;;;5064245;28;20020;-72
2022/12/29 06:15:49;;;;;;;3.60;2.92;;;20.40;57.30;;;;;;5055333;28;20352;-71
2022/12/29 06:18:15;;;;;;;3.40;2.75;;;20.40;57.40;;;;;;5049896;28;20079;-71
2022/12/29 06:20:40;;;;;;;3.83;3.10;;;20.40;57.40;;;;;;5045258;28;20386;-71
2022/12/29 06:23:06;;;;;;;3.67;2.97;;;20.40;57.40;;;;;;5048381;28;20090;-72
2022/12/29 06:25:33;;;;;;;3.38;2.70;;;20.40;57.40;;;;;;5057099;28;20076;-71
2022/12/29 06:27:59;;;;;;;3.17;2.55;;;20.40;57.40;;;;;;5055833;28;20099;-72
2022/12/29 06:30:25;;;;;;;3.70;2.95;;;20.40;57.40;;;;;;5038079;28;20389;-72
2022/12/29 06:32:51;;;;;;;3.47;2.80;;;20.30;57.40;;;;;;5047469;28;20025;-71
2022/12/29 06:35:17;;;;;;;3.28;2.72;;;20.30;57.40;;;;;;5050505;28;20059;-72
2022/12/29 06:37:43;;;;;;;3.65;2.50;;;20.30;57.40;;;;;;5050216;28;20027;-71
2022/12/29 06:40:09;;;;;;;3.30;2.80;;;20.30;57.40;;;;;;5045517;28;20021;-72
2022/12/29 06:42:35;;;;;;;3.28;2.38;;;20.30;57.40;;;;;;5051943;28;20040;-72
2022/12/29 06:45:01;;;;;;;3.47;2.60;;;20.30;57.40;;;;;;5044359;28;20025;-72
2022/12/29 06:47:26;;;;;;;3.50;2.83;;;20.30;58.00;;;;;;5041725;28;20024;-72
2022/12/29 06:49:52;;;;;;;3.20;2.60;;;20.30;57.50;;;;;;5050155;28;20021;-72
2022/12/29 06:52:18;;;;;;;3.20;2.42;;;20.30;57.70;;;;;;5043099;28;20512;-72
2022/12/29 06:54:43;;;;;;;3.05;2.60;;;20.30;57.50;;;;;;5062117;28;20112;-72
2022/12/29 06:57:09;;;;;;;3.00;2.35;;;20.30;57.50;;;;;;5061297;28;20020;-73
2022/12/29 06:59:34;;;;;;;3.00;2.50;;;20.30;57.50;;;;;;5023848;28;20465;-72
2022/12/29 07:02:01;;;;;;;3.00;2.30;;;20.30;57.60;;;;;;5037738;28;20030;-73
2022/12/29 07:04:27;;;;;;;3.00;2.50;;;20.30;57.60;;;;;;5049032;28;20051;-72
2022/12/29 07:06:53;;;;;;;3.15;2.40;;;20.30;57.60;;;;;;5039263;28;20032;-72
2022/12/29 07:09:19;;;;;;;3.00;2.30;;;20.30;57.60;;;;;;5051502;28;20025;-72
2022/12/29 07:11:45;;;;;;;3.10;2.40;;;20.30;57.60;;;;;;5056135;28;20554;-73
2022/12/29 07:14:11;;;;;;;3.22;2.67;;;20.30;57.60;;;;;;5054899;28;20072;-72
2022/12/29 07:16:37;;;;;;;3.40;2.70;;;20.30;57.60;;;;;;5050243;28;20485;-73
2022/12/29 07:19:03;;;;;;;3.05;2.50;;;20.30;57.60;;;;;;5040888;28;20113;-72
2022/12/29 07:21:29;;;;;;;3.25;2.63;;;20.20;57.60;;;;;;5054259;28;20064;-72
2022/12/29 07:23:55;;;;;;;3.00;2.40;;;20.20;57.60;;;;;;5056455;28;20421;-71
2022/12/29 07:26:21;;;;;;;3.00;2.47;;;20.20;57.60;;;;;;5048454;28;20110;-72
2022/12/29 07:28:46;;;;;;;2.65;2.28;;;20.20;57.60;;;;;;5052443;28;20052;-72
2022/12/29 07:31:18;;;;;;;3.00;2.42;;;20.30;57.70;;;;;;5054708;28;20473;-72
2022/12/29 07:33:44;;;;;;;3.05;2.55;;;20.20;57.70;;;;;;5050814;28;20022;-72
2022/12/29 07:36:11;;;;;;;3.05;2.50;;;20.20;57.70;;;;;;5052746;28;20025;-71
2022/12/29 07:38:36;;;;;;;3.05;2.50;;;20.20;57.70;;;;;;5042494;28;20033;-71
2022/12/29 07:41:02;;;;;;;3.05;2.40;;;20.20;57.70;;;;;;5043026;28;20543;-71
2022/12/29 07:43:28;;;;;;;2.70;2.20;;;20.20;57.70;;;;;;5053176;28;20488;-73
2022/12/29 07:45:54;;;;;;;3.40;2.38;;;20.20;57.70;;;;;;5039557;28;20032;-71
2022/12/29 07:48:19;;;;;;;2.72;2.10;;;20.20;57.70;;;;;;5054633;28;20028;-71
2022/12/29 07:50:45;;;;;;;3.25;2.22;;;20.20;57.80;;;;;;5064152;28;20053;-72
2022/12/29 07:53:10;;;;;;;3.00;2.30;;;20.20;57.80;;;;;;5060639;28;20439;-73
2022/12/29 07:55:36;;;;;;;3.40;2.60;;;20.20;58.30;;;;;;5056689;28;20044;-72
2022/12/29 07:58:02;;;;;;;3.17;2.47;;;20.20;57.80;;;;;;5054584;28;20016;-71
2022/12/29 08:00:27;;;;;;;3.03;2.40;;;20.20;57.90;;;;;;5051377;28;20025;-72
2022/12/29 08:02:53;;;;;;;2.70;2.22;;;20.20;57.80;;;;;;5048808;28;20075;-71
2022/12/29 08:05:19;;;;;;;3.13;2.33;;;20.20;57.80;;;;;;5045335;28;20075;-72
2022/12/29 08:07:46;;;;;;;3.00;2.40;;;20.20;57.90;;;;;;5046734;28;20112;-72
2022/12/29 08:10:12;;;;;;;2.85;2.33;;;20.20;57.80;;;;;;5052796;28;20071;-72
2022/12/29 08:12:39;;;;;;;3.38;2.42;;;20.20;57.90;;;;;;5051926;28;20511;-72
2022/12/29 08:15:06;;;;;;;3.08;2.50;;;20.20;58.40;;;;;;5049205;28;20461;-72
2022/12/29 08:17:31;;;;;;;3.22;2.22;;;20.10;57.80;;;;;;5042978;28;20388;-72
2022/12/29 08:19:57;;;;;;;2.80;2.03;;;20.20;57.90;;;;;;5046624;28;20024;-73
2022/12/29 08:22:23;;;;;;;2.50;2.00;;;20.20;57.80;;;;;;5052589;28;20040;-72
2022/12/29 08:24:48;;;;;;;3.10;2.30;;;20.10;57.80;;;;;;5054735;28;20430;-73
2022/12/29 08:27:14;;;;;;;2.90;2.28;;;20.10;57.80;;;;;;5044156;28;20032;-72
2022/12/29 08:29:39;;;;;;;3.05;2.20;;;20.10;57.80;;;;;;5050108;28;20075;-73
2022/12/29 08:32:06;;;;;;;2.90;2.17;;;20.10;57.80;;;;;;5043246;28;20084;-73
2022/12/29 08:34:32;;;;;;;2.53;1.95;;;20.10;57.80;;;;;;5052312;28;20451;-72
2022/12/29 08:36:58;;;;;;;2.80;2.20;;;20.10;57.80;;;;;;5055291;28;20376;-72
2022/12/29 08:39:23;;;;;;;2.83;2.10;;;20.10;57.80;;;;;;5056784;28;20035;-72
2022/12/29 08:41:49;;;;;;;2.72;2.10;;;20.10;57.90;;;;;;5044895;28;20056;-72
2022/12/29 08:44:15;;;;;;;2.38;1.90;;;20.10;57.90;;;;;;5048499;28;20037;-71
2022/12/29 08:46:40;;;;;;;2.60;2.10;;;20.10;57.90;;;;;;5044746;28;20103;-72
2022/12/29 08:49:06;;;;;;;3.08;2.20;;;20.10;57.90;;;;;;5049567;28;20121;-72
2022/12/29 08:51:32;;;;;;;2.70;2.10;;;20.10;57.90;;;;;;5039803;28;20495;-72
2022/12/29 08:53:58;;;;;;;2.78;2.10;;;20.10;57.90;;;;;;5056727;28;20338;-73
2022/12/29 08:56:24;;;;;;;3.00;2.17;;;20.10;57.80;;;;;;5047266;28;20032;-71
2022/12/29 08:58:51;;;;;;;3.03;2.17;;;20.10;58.40;;;;;;5053408;28;20368;-72
2022/12/29 09:01:16;;;;;;;2.50;1.90;;;20.10;57.80;;;;;;5046974;28;20029;-71
2022/12/29 09:03:42;;;;;;;2.17;1.77;;;20.10;57.90;;;;;;5044671;28;20040;-71
2022/12/29 09:06:07;;;;;;;2.90;2.10;;;20.10;57.90;;;;;;5053170;28;20064;-72
2022/12/29 09:08:33;;;;;;;2.78;2.03;;;20.10;58.00;;;;;;5047461;28;20111;-72
2022/12/29 09:11:07;;;;;;;3.13;2.40;;;20.10;58.40;;;;;;5025810;28;20028;-72
2022/12/29 09:13:33;;;;;;;2.90;2.15;;;20.10;57.90;;;;;;5046202;28;20120;-72
2022/12/29 09:15:59;;;;;;;2.63;2.00;;;20.10;57.90;;;;;;5052796;28;20037;-73
2022/12/29 09:18:25;;;;;;;2.50;1.95;;;20.10;57.90;;;;;;5038771;28;20464;-72
2022/12/29 09:20:57;;;;;;;2.47;1.98;;;20.10;57.90;;;;;;5049556;28;20025;-73
2022/12/29 09:23:23;;;;;;;2.50;1.88;;;20.10;58.10;;;;;;5038293;28;20078;-73
2022/12/29 09:25:48;;;;;;;2.63;2.00;;;20.10;58.10;;;;;;5041727;28;20125;-72
2022/12/29 09:28:14;;;;;;;2.90;2.00;;;20.10;58.10;;;;;;5050462;28;20025;-72
2022/12/29 09:30:39;;;;;;;2.90;1.98;;;20.10;58.70;;;;;;5048119;28;20090;-72
2022/12/29 09:33:05;;;;;;;2.90;2.20;;;20.10;58.10;;;;;;5050221;28;20026;-73
2022/12/29 09:35:31;;;;;;;2.80;2.20;;;20.10;58.10;;;;;;5055511;28;20017;-73
2022/12/29 09:37:56;;;;;;;2.70;2.05;;;20.10;58.20;;;;;;5042820;28;20474;-73
2022/12/29 09:40:29;;;;;;;2.97;2.17;;;20.00;58.20;;;;;;5050393;28;20404;-72
2022/12/29 09:43:27;;;;;;;2.83;2.10;;;20.10;58.20;;;;;;5042672;28;20079;-73
2022/12/29 09:46:28;;;;;;;2.92;2.10;;;20.10;58.30;;;;;;5061687;28;20031;-72
2022/12/29 09:49:09;;;;;;;2.65;2.00;;;20.10;59.00;;;;;;5049036;28;20100;-72
2022/12/29 09:51:38;;;;;;;2.80;2.20;;;20.10;58.40;;;;;;5028977;28;20420;-72
2022/12/29 09:54:27;;;;;;;2.65;1.85;;;20.10;58.40;;;;;;5047312;28;20021;-72
2022/12/29 09:56:53;;;;;;;;;;;20.10;58.50;;;;;;5046596;28;20110;-73
2022/12/29 09:59:32;;;;;;;2.80;2.10;;;20.10;58.60;;;;;;5056274;28;19909;-72
2022/12/29 10:02:10;;;;;;;2.88;2.03;;;20.10;58.60;;;;;;5050766;28;20484;-72
2022/12/29 10:04:35;;;;;;;3.80;1.90;;;20.10;58.60;;;;;;5048018;28;20021;-72
2022/12/29 10:07:25;;;;;;;2.55;2.10;;;20.10;58.60;;;;;;5054130;28;20035;-72
2022/12/29 10:10:21;;;;;;;2.80;1.95;;;20.10;59.20;;;;;;5008201;28;20072;-72
2022/12/29 10:12:46;;;;;;;2.50;1.75;;;20.10;58.70;;;;;;5059274;28;20048;-72
2022/12/29 10:15:48;;;;;;;4.07;2.00;;;20.10;58.70;;;;;;5060484;28;20087;-72
2022/12/29 10:18:51;;;;;;;3.00;2.00;;;20.10;58.70;;;;;;5038918;28;20021;-71
2022/12/29 10:21:47;;;;;;;2.45;1.95;;;20.00;58.60;;;;;;5049582;28;20025;-72
2022/12/29 10:24:13;;;;;;;2.85;2.08;;;20.00;58.60;;;;;;5056216;28;20477;-72
2022/12/29 10:26:43;;;;;;;2.85;2.17;;;20.00;58.60;;;;;;5057441;28;20035;-71
2022/12/29 10:29:25;;;;;;;2.70;1.95;;;20.00;58.60;;;;;;5055661;28;20533;-72
2022/12/29 10:31:57;;;;;;;3.20;2.00;;;20.00;58.60;;;;;;5044281;28;20025;-72
2022/12/29 10:34:41;;;;;;;2.40;1.73;;;20.00;58.50;;;;;;5036746;28;20025;-72
2022/12/29 10:37:22;;;;;;;2.92;2.00;;;20.00;58.60;;;;;;5054122;28;20501;-72
2022/12/29 10:39:55;;;;;;;3.55;1.90;;;20.00;58.50;;;;;;5030522;28;20047;-72
2022/12/29 10:42:43;;;;;;;2.20;1.50;;;20.00;58.60;;;;;;5028544;28;20032;-71
2022/12/29 10:45:14;;;;;;;2.15;1.70;;;20.10;58.70;;;;;;5058426;28;20025;-71
2022/12/29 10:47:57;;;;;;;2.90;1.70;;;20.00;58.90;;;;;;5051638;28;20020;-71
2022/12/29 10:50:25;;;;;;;3.10;1.90;;;20.10;58.80;;;;;;5046080;28;20025;-71
2022/12/29 10:52:52;;;;;;;2.83;1.75;;;20.20;58.70;;;;;;5052693;28;20021;-71
2022/12/29 10:55:25;;;;;;;2.88;2.03;;;20.30;58.60;;;;;;5047706;28;20401;-69
2022/12/29 10:57:50;;;;;;;2.97;1.90;;;20.40;58.50;;;;;;5049815;28;20036;-70
2022/12/29 11:00:23;;;;;;;2.67;1.98;;;20.50;58.40;;;;;;5046455;28;20017;-71
2022/12/29 11:03:06;;;;;;;3.45;2.40;;;20.60;58.10;;;;;;5038292;28;20056;-70
2022/12/29 11:06:02;;;;;;;3.65;2.00;;;20.80;57.80;;;;;;5038446;28;20088;-73
2022/12/29 11:08:36;;;;;;;4.03;2.10;;;20.90;57.50;;;;;;5057107;28;20021;-71
2022/12/29 11:11:06;;;;;;;4.10;2.20;;;21.00;57.20;;;;;;5050239;28;20485;-70
2022/12/29 11:13:35;;;;;;;2.78;1.77;;;21.10;57.10;;;;;;5032974;28;20025;-72
2022/12/29 11:16:02;;;;;;;2.33;1.63;;;21.30;56.90;;;;;;5038536;28;20421;-73
2022/12/29 11:18:37;;;;;;;2.60;1.63;;;21.30;56.60;;;;;;5049308;28;20087;-71
2022/12/29 11:21:23;;;;;;;2.90;2.05;;;21.50;56.50;;;;;;5046084;28;20032;-69
2022/12/29 11:23:57;;;;;;;2.40;1.85;;;21.50;56.20;;;;;;5059335;28;20036;-71
2022/12/29 11:26:24;;;;;;;3.42;2.00;;;21.60;56.10;;;;;;5050785;28;20036;-70
2022/12/29 11:29:18;;;;;;;2.72;1.92;;;21.70;55.80;;;;;;5040839;28;20025;-70
2022/12/29 11:31:58;;;;;;;2.95;1.70;;;21.80;55.50;;;;;;5056716;28;20104;-71
2022/12/29 11:34:35;;;;;;;2.65;1.80;;;21.90;55.30;;;;;;5049825;28;20083;-68
2022/12/29 11:37:06;;;;;;;3.10;2.17;;;21.90;55.10;;;;;;5032085;28;20027;-70
2022/12/29 11:39:45;;;;;;;3.25;1.90;;;22.00;55.10;;;;;;5048217;28;20021;-70
2022/12/29 11:42:18;;;;;;;3.03;1.83;;;22.00;55.00;;;;;;5052584;28;20024;-70
2022/12/29 11:44:46;;;;;;;2.67;1.73;;;22.00;55.00;;;;;;5056556;28;20078;-70
2022/12/29 11:47:25;;;;;;;2.00;1.50;;;22.00;55.00;;;;;;5057945;28;20390;-69
2022/12/29 11:49:56;;;;;;;2.10;1.40;;;22.10;55.10;;;;;;5053009;28;20112;-69
2022/12/29 11:52:25;;;;;;;2.22;1.50;;;22.20;55.00;;;;;;5047841;28;20021;-71
2022/12/29 11:54:53;;;;;;;2.33;1.50;;;22.30;54.90;;;;;;5054509;28;20030;-71
2022/12/29 11:57:22;;;;;;;2.28;1.52;;;22.30;54.70;;;;;;5057969;28;20032;-70
2022/12/29 11:59:55;;;;;;;2.85;1.70;;;22.30;54.50;;;;;;5056330;28;20025;-71
2022/12/29 12:02:31;;;;;;;2.30;1.60;;;22.30;54.40;;;;;;5036216;28;20124;-71
2022/12/29 12:05:09;;;;;;;2.72;1.65;;;22.30;54.40;;;;;;5043623;28;20383;-71
2022/12/29 12:07:47;;;;;;;2.95;1.98;;;22.30;54.30;;;;;;5042436;28;20022;-70
2022/12/29 12:10:26;;;;;;;2.70;1.77;;;22.30;54.20;;;;;;5046233;28;20477;-70
2022/12/29 12:13:05;;;;;;;2.40;1.80;;;22.30;54.10;;;;;;5056460;28;20018;-70
2022/12/29 12:15:42;;;;;;;3.88;2.08;;;22.30;54.10;;;;;;5053283;28;20027;-69
2022/12/29 12:18:26;;;;;;;3.10;1.83;;;22.30;54.10;;;;;;5048985;28;20108;-71
2022/12/29 12:21:04;;;;;;;3.63;1.90;;;22.30;54.10;;;;;;5042859;28;20018;-70
2022/12/29 12:23:32;;;;;;;2.50;1.73;;;22.30;54.10;;;;;;5056893;28;20066;-71
2022/12/29 12:26:41;;;;;;;4.10;1.70;;;22.30;54.10;;;;;;5053547;28;20503;-71
2022/12/29 12:29:16;;;;;;;2.50;1.80;;;22.30;54.00;;;;;;5051014;28;20044;-72
2022/12/29 12:31:41;;;;;;;3.25;1.80;;;22.30;54.10;;;;;;5052611;28;20021;-72
2022/12/29 12:34:16;;;;;;;2.40;1.63;;;22.30;54.10;;;;;;5063750;28;20032;-71
2022/12/29 12:37:08;;;;;;;2.78;1.70;;;22.30;54.10;;;;;;5045378;28;20057;-71
2022/12/29 12:40:02;;;;;;;2.33;1.70;;;22.30;54.10;;;;;;5054461;28;20483;-70
2022/12/29 12:42:36;;;;;;;3.05;1.75;;;22.30;54.10;;;;;;5049981;28;20040;-71
2022/12/29 12:45:30;;;;;;;2.92;1.60;;;22.20;54.00;;;;;;5028475;28;20412;-71
2022/12/29 12:48:34;;;;;;;2.60;1.70;;;22.30;54.00;;;;;;5044734;28;20081;-71
2022/12/29 12:51:58;;;;;;;3.30;1.60;;;22.20;54.00;;;;;;5002301;28;20392;-72
2022/12/29 12:54:52;;;;;;;3.38;1.80;;;22.20;54.00;;;;;;4958574;28;20423;-72
2022/12/29 12:57:33;;;;;;;2.85;1.77;;;22.20;54.10;;;;;;5029288;28;20034;-72
2022/12/29 13:00:17;;;;;;;2.88;1.80;;;22.20;54.20;;;;;;5043179;28;20087;-71
2022/12/29 13:03:12;;;;;;;2.50;1.70;;;22.20;54.10;;;;;;5051552;28;20048;-72
2022/12/29 13:06:00;;;;;;;3.30;1.95;;;22.10;54.10;;;;;;5055805;28;20052;-71
2022/12/29 13:08:53;;;;;;;3.38;1.98;;;22.10;54.20;;;;;;5027396;28;20029;-71
2022/12/29 13:11:22;;;;;;;3.80;1.80;;;22.10;54.30;;;;;;5055920;28;20116;-73
2022/12/29 13:13:56;;;;;;;2.88;1.80;;;22.20;54.30;;;;;;5049128;28;20635;-72
2022/12/29 13:16:54;;;;;;;4.13;1.85;;;22.10;54.20;;;;;;5051521;28;20037;-72
2022/12/29 13:19:41;;;;;;;3.42;1.90;;;22.10;54.30;;;;;;4981532;28;20033;-71
2022/12/29 13:22:09;;;;;;;3.28;1.85;;;22.20;54.50;;;;;;5053984;28;20115;-71
2022/12/29 13:24:50;;;;;;;3.33;1.70;;;22.20;54.40;;;;;;5053004;28;20061;-72
2022/12/29 13:27:38;;;;;;;4.03;1.90;;;22.20;54.50;;;;;;5034262;28;20502;-70
2022/12/29 13:30:22;;;;;;;3.80;1.90;;;22.10;54.40;;;;;;5046744;28;20658;-72
2022/12/29 13:33:06;;;;;;;3.65;2.00;;;22.20;54.40;;;;;;5033571;28;20028;-72
2022/12/29 13:35:34;;;;;;;3.90;1.98;;;22.20;54.30;;;;;;5057427;28;20063;-72
2022/12/29 13:38:03;;;;;;;4.05;1.98;;;22.20;54.10;;;;;;5053065;28;20037;-73
2022/12/29 13:40:34;;;;;;;3.65;2.05;;;22.20;54.10;;;;;;5054889;28;20029;-71
2022/12/29 13:43:01;;;;;;;4.50;2.00;;;22.20;54.10;;;;;;5049217;28;20032;-71